createdAt,value
2023-03-11T00:01:45.896Z,3.53
2023-03-11T00:04:13.197Z,1.67
2023-03-11T00:06:40.409Z,1.83
2023-03-11T00:09:07.559Z,3.10
2023-03-11T00:11:34.789Z,3.33
2023-03-11T00:14:01.908Z,2.22
2023-03-11T00:16:29.027Z,2.33
2023-03-11T00:18:56.282Z,1.75
2023-03-11T00:21:23.416Z,1.30
2023-03-11T00:23:50.656Z,2.30
2023-03-11T00:26:17.748Z,1.23
2023-03-11T00:28:44.888Z,2.55
2023-03-11T00:31:13.961Z,1.52
2023-03-11T00:33:41.155Z,2.42
2023-03-11T00:36:08.483Z,1.40
2023-03-11T00:38:35.745Z,1.33
2023-03-11T00:41:02.907Z,0.93
2023-03-11T00:43:30.044Z,1.75
2023-03-11T00:45:57.376Z,1.27
2023-03-11T00:48:24.559Z,1.65
2023-03-11T00:50:51.700Z,1.40
2023-03-11T00:53:18.872Z,1.98
2023-03-11T00:55:45.966Z,1.25
2023-03-11T00:58:13.348Z,1.48
2023-03-11T01:00:41.028Z,1.65
2023-03-11T01:03:08.436Z,1.27
2023-03-11T01:05:35.805Z,1.58
2023-03-11T01:08:03.385Z,1.70
2023-03-11T01:10:31.444Z,1.50
2023-03-11T01:12:58.907Z,2.38
2023-03-11T01:15:31.339Z,1.05
2023-03-11T01:20:25.667Z,3.70
2023-03-11T01:22:52.885Z,2.65
2023-03-11T01:25:21.188Z,3.17
2023-03-11T01:27:48.381Z,1.73
2023-03-11T01:30:18.932Z,2.67
2023-03-11T01:32:46.224Z,2.30
2023-03-11T01:35:14.782Z,1.42
2023-03-11T01:37:42.089Z,1.75
2023-03-11T01:40:12.214Z,3.28
2023-03-11T01:42:39.356Z,1.73
2023-03-11T01:45:26.698Z,1.55
2023-03-11T01:47:53.838Z,0.93
2023-03-11T01:50:21.202Z,2.03
2023-03-11T01:52:48.486Z,5.78
2023-03-11T01:55:17.574Z,0.80
2023-03-11T01:57:45.576Z,1.30
2023-03-11T02:00:13.349Z,1.13
2023-03-11T02:02:49.008Z,7.10
2023-03-11T02:05:17.468Z,1.38
2023-03-11T02:07:44.630Z,2.60
2023-03-11T02:10:13.526Z,2.05
2023-03-11T02:12:41.132Z,3.67
2023-03-11T02:15:09.296Z,4.13
2023-03-11T02:17:37.181Z,6.82
2023-03-11T02:20:06.229Z,11.40
2023-03-11T02:22:34.104Z,4.32
2023-03-11T02:25:01.173Z,4.47
2023-03-11T02:27:29.186Z,1.65
2023-03-11T02:29:56.874Z,3.42
2023-03-11T02:32:24.622Z,0.82
2023-03-11T02:34:51.778Z,3.67
2023-03-11T02:37:19.427Z,0.95
2023-03-11T02:39:47.872Z,2.40
2023-03-11T02:42:17.140Z,1.23
2023-03-11T02:44:45.402Z,2.05
2023-03-11T02:47:12.674Z,2.60
2023-03-11T02:49:39.906Z,1.20
2023-03-11T02:52:07.622Z,0.70
2023-03-11T02:54:34.771Z,2.17
2023-03-11T02:57:01.856Z,2.55
2023-03-11T02:59:29.045Z,1.52
2023-03-11T03:01:56.228Z,3.35
2023-03-11T03:04:23.393Z,4.13
2023-03-11T03:06:50.524Z,4.20
2023-03-11T03:09:17.694Z,1.85
2023-03-11T03:11:44.925Z,1.65
2023-03-11T03:14:11.981Z,1.38
2023-03-11T03:16:39.360Z,2.63
2023-03-11T03:19:06.603Z,2.33
2023-03-11T03:21:33.711Z,0.82
2023-03-11T03:24:00.936Z,2.55
2023-03-11T03:26:28.073Z,4.07
2023-03-11T03:28:55.220Z,4.90
2023-03-11T03:31:22.471Z,2.63
2023-03-11T03:33:49.613Z,1.67
2023-03-11T03:36:16.735Z,4.18
2023-03-11T03:38:43.882Z,4.05
2023-03-11T03:41:11.251Z,1.52
2023-03-11T03:43:38.396Z,0.77
2023-03-11T03:46:06.317Z,1.58
2023-03-11T03:48:33.670Z,3.42
2023-03-11T03:51:08.668Z,2.38
2023-03-11T03:53:36.430Z,3.38
2023-03-11T03:56:04.816Z,2.65
2023-03-11T03:58:31.949Z,6.35
2023-03-11T04:00:59.486Z,2.90
2023-03-11T04:03:27.600Z,1.15
2023-03-11T04:05:55.085Z,2.40
2023-03-11T04:08:22.265Z,3.95
2023-03-11T04:10:58.522Z,5.82
2023-03-11T04:13:25.645Z,5.60
2023-03-11T04:15:52.771Z,2.17
2023-03-11T04:18:19.976Z,1.38
2023-03-11T04:20:47.084Z,2.92
2023-03-11T04:23:14.205Z,2.67
2023-03-11T04:25:41.400Z,3.03
2023-03-11T04:28:08.542Z,4.30
2023-03-11T04:30:35.679Z,2.60
2023-03-11T04:33:03.379Z,4.85
2023-03-11T04:35:30.543Z,7.55
2023-03-11T04:37:57.653Z,2.50
2023-03-11T04:40:24.733Z,4.35
2023-03-11T04:42:51.858Z,3.83
2023-03-11T04:45:18.993Z,3.90
2023-03-11T04:47:49.812Z,3.33
2023-03-11T04:50:17.609Z,3.53
2023-03-11T04:52:44.828Z,4.13
2023-03-11T04:55:13.863Z,3.30
2023-03-11T04:57:41.791Z,2.17
2023-03-11T05:00:11.219Z,3.00
2023-03-11T05:02:39.077Z,5.45
2023-03-11T05:05:07.050Z,6.07
2023-03-11T05:07:34.128Z,2.78
2023-03-11T05:10:01.243Z,2.75
2023-03-11T05:12:28.456Z,3.72
2023-03-11T05:14:55.548Z,6.20
2023-03-11T05:17:22.644Z,4.45
2023-03-11T05:19:49.762Z,4.60
2023-03-11T05:22:16.897Z,2.65
2023-03-11T05:24:44.060Z,3.80
2023-03-11T05:27:11.202Z,4.15
2023-03-11T05:29:38.315Z,4.72
2023-03-11T05:32:05.604Z,4.53
2023-03-11T05:34:32.719Z,2.33
2023-03-11T05:37:03.176Z,3.17
2023-03-11T05:39:30.533Z,3.63
2023-03-11T05:41:57.710Z,4.15
2023-03-11T05:44:24.823Z,1.33
2023-03-11T05:46:51.950Z,5.30
2023-03-11T05:49:21.315Z,4.55
2023-03-11T05:51:48.804Z,6.22
2023-03-11T05:54:16.275Z,1.48
2023-03-11T05:56:44.104Z,7.72
2023-03-11T05:59:13.247Z,5.97
2023-03-11T06:01:43.006Z,5.88
2023-03-11T06:04:10.605Z,11.63
2023-03-11T06:06:39.633Z,3.80
2023-03-11T06:09:06.771Z,2.35
2023-03-11T06:11:33.930Z,1.63
2023-03-11T06:14:01.031Z,3.72
2023-03-11T06:16:28.333Z,5.55
2023-03-11T06:18:55.481Z,5.20
2023-03-11T06:21:24.253Z,4.45
2023-03-11T06:23:51.413Z,3.53
2023-03-11T06:26:20.225Z,5.57
2023-03-11T06:28:49.311Z,8.00
2023-03-11T06:31:17.815Z,4.72
2023-03-11T06:33:44.963Z,4.00
2023-03-11T06:36:13.888Z,8.00
2023-03-11T06:38:41.185Z,3.97
2023-03-11T06:41:08.673Z,3.85
2023-03-11T06:43:36.494Z,4.80
2023-03-11T06:46:08.832Z,8.10
2023-03-11T06:48:35.970Z,4.72
2023-03-11T06:51:03.131Z,2.90
2023-03-11T06:53:30.548Z,3.83
2023-03-11T06:56:03.810Z,5.13
2023-03-11T06:58:31.411Z,2.53
2023-03-11T07:01:02.420Z,2.55
2023-03-11T07:03:29.575Z,8.75
2023-03-11T07:05:56.736Z,8.20
2023-03-11T07:08:23.815Z,4.97
2023-03-11T07:11:10.443Z,2.95
2023-03-11T07:13:38.676Z,5.00
2023-03-11T07:16:07.490Z,5.00
2023-03-11T07:18:35.964Z,3.50
2023-03-11T07:21:03.777Z,12.88
2023-03-11T07:23:30.888Z,12.00
2023-03-11T07:25:58.025Z,10.15
2023-03-11T07:28:25.992Z,4.50
2023-03-11T07:30:53.590Z,7.47
2023-03-11T07:33:21.388Z,4.65
2023-03-11T07:35:49.424Z,2.63
2023-03-11T07:38:17.905Z,4.10
2023-03-11T07:40:45.181Z,7.38
2023-03-11T07:43:12.398Z,4.45
2023-03-11T07:45:39.559Z,5.40
2023-03-11T07:48:06.835Z,5.07
2023-03-11T07:50:34.032Z,6.75
2023-03-11T07:53:01.126Z,3.22
2023-03-11T07:55:28.270Z,8.68
2023-03-11T07:57:55.381Z,5.60
2023-03-11T08:00:22.671Z,4.70
2023-03-11T08:02:49.905Z,5.80
2023-03-11T08:05:18.490Z,3.28
2023-03-11T08:07:45.649Z,4.78
2023-03-11T08:10:12.977Z,4.18
2023-03-11T08:12:40.066Z,13.23
2023-03-11T08:15:07.557Z,2.35
2023-03-11T08:17:34.633Z,7.72
2023-03-11T08:20:01.802Z,5.15
2023-03-11T08:22:28.954Z,8.25
2023-03-11T08:24:56.625Z,3.15
2023-03-11T08:27:23.763Z,12.13
2023-03-11T08:29:50.869Z,10.90
2023-03-11T08:32:18.051Z,7.57
2023-03-11T08:34:45.296Z,9.65
2023-03-11T08:37:12.396Z,3.33
2023-03-11T08:39:39.500Z,6.88
2023-03-11T08:42:06.719Z,8.23
2023-03-11T08:44:33.778Z,6.32
2023-03-11T08:47:01.654Z,3.72
2023-03-11T08:49:29.059Z,8.93
2023-03-11T08:51:56.181Z,10.70
2023-03-11T08:54:23.369Z,12.13
2023-03-11T08:56:50.589Z,12.38
2023-03-11T08:59:17.683Z,5.03
2023-03-11T09:01:44.782Z,6.25
2023-03-11T09:04:13.042Z,8.13
2023-03-11T09:06:42.835Z,5.57
2023-03-11T09:09:11.102Z,5.75
2023-03-11T09:11:38.211Z,7.35
2023-03-11T09:14:06.372Z,6.68
2023-03-11T09:16:33.644Z,5.68
2023-03-11T09:19:03.619Z,4.93
2023-03-11T09:21:30.860Z,7.60
2023-03-11T09:23:57.984Z,12.23
2023-03-11T09:26:25.154Z,2.67
2023-03-11T09:28:52.406Z,5.60
2023-03-11T09:31:20.114Z,6.60
2023-03-11T09:33:47.422Z,7.38
2023-03-11T09:36:15.943Z,8.38
2023-03-11T09:38:43.448Z,7.07
2023-03-11T09:41:29.172Z,7.60
2023-03-11T09:44:22.601Z,1.83
2023-03-11T09:47:08.446Z,6.03
2023-03-11T09:49:50.782Z,3.90
2023-03-11T09:52:24.363Z,6.90
2023-03-11T09:54:54.729Z,3.58
2023-03-11T09:57:30.907Z,7.68
2023-03-11T09:59:58.648Z,7.85
2023-03-11T10:02:27.659Z,6.05
2023-03-11T10:05:04.056Z,12.45
2023-03-11T10:07:37.617Z,7.00
2023-03-11T10:10:04.995Z,3.72
2023-03-11T10:12:41.325Z,4.07
2023-03-11T10:15:09.424Z,6.68
2023-03-11T10:17:55.246Z,3.65
2023-03-11T10:20:46.425Z,3.65
2023-03-11T10:23:27.599Z,2.85
2023-03-11T10:25:58.053Z,1.83
2023-03-11T10:28:29.118Z,4.63
2023-03-11T10:31:03.411Z,5.57
2023-03-11T10:33:38.244Z,4.55
2023-03-11T10:36:12.659Z,5.13
2023-03-11T10:38:48.291Z,7.35
2023-03-11T10:41:21.655Z,3.83
2023-03-11T10:44:03.909Z,5.97
2023-03-11T10:46:31.105Z,5.40
2023-03-11T10:48:58.408Z,2.55
2023-03-11T10:51:27.627Z,3.55
2023-03-11T10:53:59.079Z,2.33
2023-03-11T10:56:31.752Z,1.90
2023-03-11T11:01:26.784Z,5.95
2023-03-11T11:03:57.977Z,3.67
2023-03-11T11:06:35.120Z,3.72
2023-03-11T11:09:31.050Z,3.78
2023-03-11T11:12:03.295Z,3.33
2023-03-11T11:14:50.328Z,3.40
2023-03-11T11:17:20.707Z,9.27
2023-03-11T11:19:49.352Z,3.45
2023-03-11T11:22:18.357Z,5.85
2023-03-11T11:24:46.190Z,6.50
2023-03-11T11:27:18.520Z,3.03
2023-03-11T11:29:46.242Z,5.88
2023-03-11T11:32:19.589Z,3.80
2023-03-11T11:34:55.843Z,3.55
2023-03-11T11:37:23.365Z,3.70
2023-03-11T11:39:58.915Z,5.25
2023-03-11T11:42:27.235Z,1.77
2023-03-11T11:44:58.349Z,1.17
2023-03-11T11:47:28.540Z,2.33
2023-03-11T11:49:57.518Z,8.07
2023-03-11T11:52:35.905Z,8.50
2023-03-11T11:55:03.056Z,2.10
2023-03-11T11:57:30.412Z,3.65
2023-03-11T11:59:58.095Z,4.85
2023-03-11T12:02:37.621Z,4.60
2023-03-11T12:05:10.437Z,2.70
2023-03-11T12:07:52.921Z,5.65
2023-03-11T12:10:29.295Z,4.20
2023-03-11T12:12:56.397Z,4.35
2023-03-11T12:15:42.073Z,3.80
2023-03-11T12:18:25.061Z,4.43
2023-03-11T12:23:31.162Z,4.15
2023-03-11T12:26:19.404Z,4.43
2023-03-11T12:28:59.784Z,4.45
2023-03-11T12:31:28.291Z,3.80
2023-03-11T12:34:02.300Z,2.10
2023-03-11T12:36:37.556Z,2.20
2023-03-11T12:39:08.910Z,4.38
2023-03-11T12:41:42.124Z,3.20
2023-03-11T12:44:18.228Z,2.50
2023-03-11T12:47:05.586Z,3.80
2023-03-11T12:49:40.934Z,2.15
2023-03-11T12:52:14.254Z,1.92
2023-03-11T12:54:48.167Z,2.53
2023-03-11T12:57:21.245Z,4.63
2023-03-11T13:00:12.415Z,4.68
2023-03-11T13:02:39.660Z,4.40
2023-03-11T13:05:15.998Z,3.75
2023-03-11T13:07:46.269Z,3.17
2023-03-11T13:10:35.932Z,4.85
2023-03-11T13:13:03.432Z,2.10
2023-03-11T13:15:31.633Z,2.95
2023-03-11T13:18:07.683Z,3.55
2023-03-11T13:20:43.888Z,2.83
2023-03-11T13:23:10.988Z,4.03
2023-03-11T13:25:39.942Z,5.57
2023-03-11T13:28:25.879Z,6.07
2023-03-11T13:31:12.084Z,4.80
2023-03-11T13:33:46.626Z,1.67
2023-03-11T13:36:32.951Z,6.03
2023-03-11T13:39:15.098Z,7.15
2023-03-11T13:41:44.376Z,3.63
2023-03-11T13:44:11.648Z,5.07
2023-03-11T13:46:40.877Z,6.35
2023-03-11T13:49:31.578Z,2.72
2023-03-11T13:51:59.455Z,5.47
2023-03-11T13:54:36.386Z,2.83
2023-03-11T13:57:04.234Z,3.75
2023-03-11T13:59:32.942Z,5.45
2023-03-11T14:02:01.417Z,4.07
2023-03-11T14:04:30.505Z,5.38
2023-03-11T14:06:57.737Z,3.78
2023-03-11T14:09:26.550Z,3.10
2023-03-11T14:11:54.407Z,3.08
2023-03-11T14:14:34.536Z,2.53
2023-03-11T14:17:03.938Z,4.03
2023-03-11T14:19:31.189Z,5.03
2023-03-11T14:21:58.332Z,2.28
2023-03-11T14:24:31.322Z,5.15
2023-03-11T14:27:00.556Z,3.28
2023-03-11T14:29:35.855Z,2.33
2023-03-11T14:32:17.634Z,1.55
2023-03-11T14:34:45.961Z,3.55
2023-03-11T14:37:26.395Z,2.53
2023-03-11T14:39:54.261Z,2.45
2023-03-11T14:42:26.076Z,5.22
2023-03-11T14:45:05.131Z,5.40
2023-03-11T14:47:35.638Z,4.50
2023-03-11T14:50:03.973Z,3.55
2023-03-11T14:52:34.564Z,4.03
2023-03-11T14:55:02.266Z,2.53
2023-03-11T14:57:29.339Z,3.58
2023-03-11T14:59:57.191Z,4.43
2023-03-11T15:02:43.109Z,5.82
2023-03-11T15:05:20.702Z,6.50
2023-03-11T15:07:49.574Z,5.45
2023-03-11T15:10:16.746Z,4.88
2023-03-11T15:12:45.589Z,5.72
2023-03-11T15:15:39.080Z,3.33
2023-03-11T15:18:20.068Z,3.75
2023-03-11T15:20:47.854Z,3.80
2023-03-11T15:23:21.671Z,2.58
2023-03-11T15:25:50.116Z,4.45
2023-03-11T15:28:25.233Z,4.13
2023-03-11T15:31:12.369Z,4.82
2023-03-11T15:33:39.648Z,5.10
2023-03-11T15:36:06.984Z,2.65
2023-03-11T15:38:34.164Z,5.55
2023-03-11T15:41:03.120Z,68.63
2023-03-11T15:43:31.497Z,17.83
2023-03-11T15:45:59.741Z,37.50
2023-03-11T15:48:28.959Z,40.10
2023-03-11T15:50:59.828Z,14.93
2023-03-11T15:53:27.934Z,31.88
2023-03-11T15:56:06.265Z,44.00
2023-03-11T15:58:34.252Z,8.63
2023-03-11T16:01:01.424Z,16.58
2023-03-11T16:03:31.242Z,22.02
2023-03-11T16:05:58.560Z,10.90
2023-03-11T16:08:25.724Z,5.38
2023-03-11T16:10:52.874Z,7.57
2023-03-11T16:13:19.988Z,11.25
2023-03-11T16:15:47.369Z,9.32
2023-03-11T16:18:14.761Z,5.78
2023-03-11T16:20:43.649Z,4.32
2023-03-11T16:23:17.279Z,6.88
2023-03-11T16:25:44.754Z,12.73
2023-03-11T16:28:14.235Z,19.70
2023-03-11T16:30:41.416Z,11.10
2023-03-11T16:33:08.672Z,18.33
2023-03-11T16:35:36.053Z,10.85
2023-03-11T16:38:03.142Z,11.57
2023-03-11T16:40:30.608Z,6.35
2023-03-11T16:43:00.814Z,6.00
2023-03-11T16:45:28.363Z,6.95
2023-03-11T16:47:55.515Z,8.68
2023-03-11T16:50:24.312Z,9.85
2023-03-11T16:52:51.947Z,22.13
2023-03-11T16:55:19.117Z,11.40
2023-03-11T16:57:46.330Z,13.23
2023-03-11T17:00:14.687Z,6.68
2023-03-11T17:02:41.848Z,5.45
2023-03-11T17:05:09.377Z,4.50
2023-03-11T17:07:39.294Z,7.47
2023-03-11T17:10:07.454Z,8.18
2023-03-11T17:12:35.961Z,7.03
2023-03-11T17:15:03.873Z,13.38
2023-03-11T17:17:31.065Z,11.52
2023-03-11T17:19:58.264Z,25.02
2023-03-11T17:22:25.380Z,24.65
2023-03-11T17:24:52.414Z,27.63
2023-03-11T17:27:19.552Z,16.17
2023-03-11T17:29:46.881Z,11.63
2023-03-11T17:32:17.366Z,12.15
2023-03-11T17:34:44.701Z,20.10
2023-03-11T17:37:12.040Z,15.68
2023-03-11T17:39:39.229Z,11.35
2023-03-11T17:42:06.507Z,19.95
2023-03-11T17:44:50.226Z,16.90
2023-03-11T17:47:19.626Z,7.32
2023-03-11T17:49:47.073Z,11.82
2023-03-11T17:52:15.270Z,11.55
2023-03-11T17:54:42.367Z,8.48
2023-03-11T17:57:09.462Z,13.93
2023-03-11T17:59:36.634Z,12.00
2023-03-11T18:02:03.874Z,39.00
2023-03-11T18:04:31.068Z,51.40
2023-03-11T18:06:58.158Z,26.92
2023-03-11T18:09:25.286Z,12.05
2023-03-11T18:11:52.367Z,11.20
2023-03-11T18:14:19.439Z,8.15
2023-03-11T18:16:46.540Z,5.55
2023-03-11T18:19:13.792Z,5.63
2023-03-11T18:21:40.987Z,5.63
2023-03-11T18:24:08.104Z,6.85
2023-03-11T18:26:35.302Z,8.43
2023-03-11T18:29:02.590Z,8.23
2023-03-11T18:31:30.823Z,5.43
2023-03-11T18:33:59.768Z,5.80
2023-03-11T18:36:31.117Z,6.10
2023-03-11T18:38:58.960Z,6.90
2023-03-11T18:41:26.897Z,9.25
2023-03-11T18:43:54.859Z,10.70
2023-03-11T18:46:22.151Z,15.00
2023-03-11T18:48:49.330Z,13.75
2023-03-11T18:51:16.657Z,9.98
2023-03-11T18:53:43.824Z,12.00
2023-03-11T18:56:14.870Z,16.75
2023-03-11T18:58:42.172Z,16.73
2023-03-11T19:01:12.090Z,19.30
2023-03-11T19:03:39.435Z,16.23
2023-03-11T19:06:07.993Z,14.05
2023-03-11T19:08:35.165Z,11.90
2023-03-11T19:11:05.994Z,12.70
2023-03-11T19:13:45.914Z,10.57
2023-03-11T19:16:16.052Z,17.90
2023-03-11T19:18:43.267Z,21.90
2023-03-11T19:21:12.031Z,18.13
2023-03-11T19:23:39.228Z,17.58
2023-03-11T19:26:06.423Z,14.95
2023-03-11T19:28:33.605Z,17.30
2023-03-11T19:31:00.900Z,18.08
2023-03-11T19:33:28.462Z,15.07
2023-03-11T19:35:59.830Z,18.80
2023-03-11T19:38:27.461Z,22.98
2023-03-11T19:40:54.994Z,25.02
2023-03-11T19:43:23.735Z,17.55
2023-03-11T19:45:50.917Z,12.13
2023-03-11T19:48:18.568Z,13.98
2023-03-11T19:50:45.672Z,16.05
2023-03-11T19:53:12.978Z,20.63
2023-03-11T19:55:44.224Z,18.48
2023-03-11T19:58:11.420Z,15.10
2023-03-11T20:00:40.097Z,22.20
2023-03-11T20:03:07.302Z,16.05
2023-03-11T20:05:36.328Z,15.63
2023-03-11T20:08:03.870Z,15.35
2023-03-11T20:10:31.084Z,20.77
2023-03-11T20:13:02.466Z,21.00
2023-03-11T20:15:30.497Z,18.17
2023-03-11T20:17:57.745Z,15.60
2023-03-11T20:20:24.878Z,13.95
2023-03-11T20:22:51.925Z,14.07
2023-03-11T20:25:19.136Z,16.63
2023-03-11T20:27:46.259Z,15.73
2023-03-11T20:30:13.831Z,13.52
2023-03-11T20:32:40.971Z,15.57
2023-03-11T20:35:08.345Z,15.65
2023-03-11T20:37:35.539Z,14.68
2023-03-11T20:40:03.037Z,19.63
2023-03-11T20:42:30.224Z,22.23
2023-03-11T20:44:57.346Z,22.02
2023-03-11T20:47:24.539Z,23.98
2023-03-11T20:49:51.958Z,23.58
2023-03-11T20:52:19.093Z,24.85
2023-03-11T20:54:46.241Z,21.33
2023-03-11T20:57:13.351Z,23.85
2023-03-11T20:59:40.503Z,20.98
2023-03-11T21:02:08.027Z,22.08
2023-03-11T21:04:35.576Z,27.23
2023-03-11T21:07:03.080Z,25.80
2023-03-11T21:09:30.603Z,30.23
2023-03-11T21:11:57.877Z,23.75
2023-03-11T21:14:25.066Z,22.40
2023-03-11T21:16:52.325Z,22.95
2023-03-11T21:19:22.168Z,29.38
2023-03-11T21:21:49.494Z,26.95
2023-03-11T21:24:16.767Z,31.98
2023-03-11T21:26:43.848Z,31.80
2023-03-11T21:29:11.166Z,28.40
2023-03-11T21:31:38.528Z,28.30
2023-03-11T21:34:05.775Z,26.30
2023-03-11T21:36:33.040Z,24.02
2023-03-11T21:39:03.295Z,21.08
2023-03-11T21:41:30.835Z,27.40
2023-03-11T21:43:58.230Z,23.10
2023-03-11T21:46:27.042Z,23.92
2023-03-11T21:48:54.333Z,19.38
2023-03-11T21:51:22.113Z,17.50
2023-03-11T21:53:49.485Z,22.63
2023-03-11T21:56:17.233Z,21.75
2023-03-11T21:58:44.610Z,20.10
2023-03-11T22:01:12.057Z,13.90
2023-03-11T22:03:39.652Z,14.43
2023-03-11T22:06:08.104Z,16.15
2023-03-11T22:08:35.348Z,14.82
2023-03-11T22:11:03.056Z,10.68
2023-03-11T22:13:30.218Z,15.18
2023-03-11T22:15:57.431Z,14.20
2023-03-11T22:18:24.664Z,18.45
2023-03-11T22:20:52.134Z,12.43
2023-03-11T22:23:19.365Z,16.90
2023-03-11T22:25:46.473Z,16.30
2023-03-11T22:28:14.699Z,11.40
2023-03-11T22:30:41.866Z,11.77
2023-03-11T22:33:09.122Z,13.23
2023-03-11T22:35:36.364Z,110.32
2023-03-11T22:38:03.467Z,85.32
2023-03-11T22:40:30.626Z,29.45
2023-03-11T22:42:57.753Z,16.30
2023-03-11T22:45:24.942Z,15.48
2023-03-11T22:47:53.118Z,8.27
2023-03-11T22:50:20.962Z,10.38
2023-03-11T22:52:48.129Z,8.57
2023-03-11T22:55:15.285Z,7.93
2023-03-11T22:57:42.697Z,6.38
2023-03-11T23:00:17.117Z,6.25
2023-03-11T23:02:45.230Z,8.40
2023-03-11T23:05:13.210Z,7.47
2023-03-11T23:07:40.587Z,8.93
2023-03-11T23:10:08.849Z,10.35
2023-03-11T23:12:36.972Z,7.43
2023-03-11T23:15:04.962Z,8.85
2023-03-11T23:17:32.095Z,12.77
2023-03-11T23:19:59.218Z,15.02
2023-03-11T23:22:26.434Z,12.20
2023-03-11T23:24:53.582Z,12.38
2023-03-11T23:27:20.756Z,7.55
2023-03-11T23:29:47.905Z,8.38
2023-03-11T23:32:15.235Z,12.30
2023-03-11T23:34:42.492Z,12.48
2023-03-11T23:37:09.665Z,11.95
2023-03-11T23:39:36.750Z,10.55
2023-03-11T23:42:14.962Z,11.93
2023-03-11T23:44:51.250Z,10.95
2023-03-11T23:47:18.442Z,14.18
2023-03-11T23:49:45.575Z,15.68
2023-03-11T23:52:12.660Z,14.18
2023-03-11T23:54:39.835Z,11.90
2023-03-11T23:57:06.919Z,12.27
2023-03-11T23:59:34.061Z,13.43
